Pollard, Alabama
Current Conditions -  °F | °C
As of 11:53 AM on Monday 24 Nov 2014 (Local Time) from KGZH Reporting Station
Clear Clear  
Wind Chill: 77°   Ceiling: Unl
Heat Index: 79°   Visibility: 10mi
Dew Point: 56°   Wind: 5mph
Humidity: 48%   Direction: 300°WNW
Pressure: 29.83"   Gusts: NA
Location:  31.1088°N, 87.2802°W
Report Text: KGZH 241753Z AUTO 30004KT 10SM CLR 25/13 A2983 RMK AO2 SLP097 T02500133 10250 20183 58007
Loading
Personal Weather Stations






























Interactive Weather Map New forecast layout! Learn more

10-Day Weather Forecast

Advertisements
Track Severe Weather on mobile